sensor_id;sensor_type;location;lat;lon;timestamp;pressure;altitude;pressure_sealevel;temperature;humidity
19843;BME280;10082;51.038;6.992;2022-10-16T00:00:42;112171.53;;;-144.33;100.00
19843;BME280;10082;51.038;6.992;2022-10-16T00:03:10;112171.53;;;-144.33;100.00
19843;BME280;10082;51.038;6.992;2022-10-16T00:05:41;112171.53;;;-144.33;100.00
19843;BME280;10082;51.038;6.992;2022-10-16T00:08:10;112171.53;;;-144.33;100.00
19843;BME280;10082;51.038;6.992;2022-10-16T00:10:37;112171.53;;;-144.33;100.00
19843;BME280;10082;51.038;6.992;2022-10-16T00:13:04;112171.53;;;-144.33;100.00
19843;BME280;10082;51.038;6.992;2022-10-16T00:15:34;112171.53;;;-144.33;100.00
19843;BME280;10082;51.038;6.992;2022-10-16T00:18:02;112171.53;;;-144.33;100.00
19843;BME280;10082;51.038;6.992;2022-10-16T00:20:29;112171.53;;;-144.33;100.00
19843;BME280;10082;51.038;6.992;2022-10-16T00:22:58;112171.53;;;-144.33;100.00
19843;BME280;10082;51.038;6.992;2022-10-16T00:25:25;112171.53;;;-144.33;100.00
19843;BME280;10082;51.038;6.992;2022-10-16T00:27:52;112171.53;;;-144.33;100.00
19843;BME280;10082;51.038;6.992;2022-10-16T00:30:19;112171.53;;;-144.33;100.00
19843;BME280;10082;51.038;6.992;2022-10-16T00:32:48;112171.53;;;-144.33;100.00
19843;BME280;10082;51.038;6.992;2022-10-16T00:35:14;112171.53;;;-144.33;100.00
19843;BME280;10082;51.038;6.992;2022-10-16T00:37:41;112171.53;;;-144.33;100.00
19843;BME280;10082;51.038;6.992;2022-10-16T00:40:09;112171.53;;;-144.33;100.00
19843;BME280;10082;51.038;6.992;2022-10-16T00:42:37;112171.53;;;-144.33;100.00
19843;BME280;10082;51.038;6.992;2022-10-16T00:45:05;112171.53;;;-144.33;100.00
19843;BME280;10082;51.038;6.992;2022-10-16T00:47:34;112171.53;;;-144.33;100.00
19843;BME280;10082;51.038;6.992;2022-10-16T00:50:07;112171.53;;;-144.33;100.00
19843;BME280;10082;51.038;6.992;2022-10-16T00:52:35;112171.53;;;-144.33;100.00
19843;BME280;10082;51.038;6.992;2022-10-16T00:55:05;112171.53;;;-144.33;100.00
19843;BME280;10082;51.038;6.992;2022-10-16T00:57:33;112171.53;;;-144.33;100.00
19843;BME280;10082;51.038;6.992;2022-10-16T01:00:02;112171.53;;;-144.33;100.00
19843;BME280;10082;51.038;6.992;2022-10-16T01:02:30;112171.53;;;-144.33;100.00
19843;BME280;10082;51.038;6.992;2022-10-16T01:04:57;112171.53;;;-144.33;100.00
19843;BME280;10082;51.038;6.992;2022-10-16T01:07:35;112171.53;;;-144.33;100.00
19843;BME280;10082;51.038;6.992;2022-10-16T01:10:10;112171.53;;;-144.33;100.00
19843;BME280;10082;51.038;6.992;2022-10-16T01:12:45;112171.53;;;-144.33;100.00
19843;BME280;10082;51.038;6.992;2022-10-16T01:15:17;112171.53;;;-144.33;100.00
19843;BME280;10082;51.038;6.992;2022-10-16T01:17:51;112171.53;;;-144.33;100.00
19843;BME280;10082;51.038;6.992;2022-10-16T01:20:26;112171.53;;;-144.33;100.00
19843;BME280;10082;51.038;6.992;2022-10-16T01:23:04;112171.53;;;-144.33;100.00
19843;BME280;10082;51.038;6.992;2022-10-16T01:25:46;112171.53;;;-144.33;100.00
19843;BME280;10082;51.038;6.992;2022-10-16T01:28:19;112171.53;;;-144.33;100.00
19843;BME280;10082;51.038;6.992;2022-10-16T01:30:49;112171.53;;;-144.33;100.00
19843;BME280;10082;51.038;6.992;2022-10-16T01:33:21;112171.53;;;-144.33;100.00
19843;BME280;10082;51.038;6.992;2022-10-16T01:35:52;112171.53;;;-144.33;100.00
19843;BME280;10082;51.038;6.992;2022-10-16T01:38:23;112171.53;;;-144.33;100.00
19843;BME280;10082;51.038;6.992;2022-10-16T01:40:56;112171.53;;;-144.33;100.00
19843;BME280;10082;51.038;6.992;2022-10-16T01:43:31;112171.53;;;-144.33;100.00
19843;BME280;10082;51.038;6.992;2022-10-16T01:46:01;112171.53;;;-144.33;100.00
19843;BME280;10082;51.038;6.992;2022-10-16T01:48:29;112171.53;;;-144.33;100.00
19843;BME280;10082;51.038;6.992;2022-10-16T01:51:01;112171.53;;;-144.33;100.00
19843;BME280;10082;51.038;6.992;2022-10-16T01:53:30;112171.53;;;-144.33;100.00
19843;BME280;10082;51.038;6.992;2022-10-16T01:55:58;112171.53;;;-144.33;100.00
19843;BME280;10082;51.038;6.992;2022-10-16T01:58:27;112171.53;;;-144.33;100.00
19843;BME280;10082;51.038;6.992;2022-10-16T02:01:00;112171.53;;;-144.33;100.00
19843;BME280;10082;51.038;6.992;2022-10-16T02:03:28;112171.53;;;-144.33;100.00
19843;BME280;10082;51.038;6.992;2022-10-16T02:05:56;112171.53;;;-144.33;100.00
19843;BME280;10082;51.038;6.992;2022-10-16T02:08:28;112171.53;;;-144.33;100.00
19843;BME280;10082;51.038;6.992;2022-10-16T02:10:57;112171.53;;;-144.33;100.00
19843;BME280;10082;51.038;6.992;2022-10-16T02:13:29;112171.53;;;-144.33;100.00
19843;BME280;10082;51.038;6.992;2022-10-16T02:15:57;112171.53;;;-144.33;100.00
19843;BME280;10082;51.038;6.992;2022-10-16T02:18:25;112171.53;;;-144.33;100.00
19843;BME280;10082;51.038;6.992;2022-10-16T02:20:57;112171.53;;;-144.33;100.00
19843;BME280;10082;51.038;6.992;2022-10-16T02:23:32;112171.53;;;-144.33;100.00
19843;BME280;10082;51.038;6.992;2022-10-16T02:26:03;112171.53;;;-144.33;100.00
19843;BME280;10082;51.038;6.992;2022-10-16T02:28:40;112171.53;;;-144.33;100.00
19843;BME280;10082;51.038;6.992;2022-10-16T02:31:11;112171.53;;;-144.33;100.00
19843;BME280;10082;51.038;6.992;2022-10-16T02:33:40;112171.53;;;-144.33;100.00
19843;BME280;10082;51.038;6.992;2022-10-16T02:36:08;112171.53;;;-144.33;100.00
19843;BME280;10082;51.038;6.992;2022-10-16T02:38:36;112171.53;;;-144.33;100.00
19843;BME280;10082;51.038;6.992;2022-10-16T02:41:04;112171.53;;;-144.33;100.00
19843;BME280;10082;51.038;6.992;2022-10-16T02:43:31;112171.53;;;-144.33;100.00
19843;BME280;10082;51.038;6.992;2022-10-16T02:46:00;112171.53;;;-144.33;100.00
19843;BME280;10082;51.038;6.992;2022-10-16T02:48:28;112171.53;;;-144.33;100.00
19843;BME280;10082;51.038;6.992;2022-10-16T02:50:55;112171.53;;;-144.33;100.00
19843;BME280;10082;51.038;6.992;2022-10-16T02:53:22;112171.53;;;-144.33;100.00
19843;BME280;10082;51.038;6.992;2022-10-16T02:55:49;112171.53;;;-144.33;100.00
19843;BME280;10082;51.038;6.992;2022-10-16T02:58:16;112171.53;;;-144.33;100.00
19843;BME280;10082;51.038;6.992;2022-10-16T03:00:43;112171.53;;;-144.33;100.00
19843;BME280;10082;51.038;6.992;2022-10-16T03:03:12;112171.53;;;-144.33;100.00
19843;BME280;10082;51.038;6.992;2022-10-16T03:05:39;112171.53;;;-144.33;100.00
19843;BME280;10082;51.038;6.992;2022-10-16T03:08:06;112171.53;;;-144.33;100.00
19843;BME280;10082;51.038;6.992;2022-10-16T03:10:33;112171.53;;;-144.33;100.00
19843;BME280;10082;51.038;6.992;2022-10-16T03:13:00;112171.53;;;-144.33;100.00
19843;BME280;10082;51.038;6.992;2022-10-16T03:15:28;112171.53;;;-144.33;100.00
19843;BME280;10082;51.038;6.992;2022-10-16T03:17:55;112171.53;;;-144.33;100.00
19843;BME280;10082;51.038;6.992;2022-10-16T03:20:25;112171.53;;;-144.33;100.00
19843;BME280;10082;51.038;6.992;2022-10-16T03:22:52;112171.53;;;-144.33;100.00
19843;BME280;10082;51.038;6.992;2022-10-16T03:25:19;112171.53;;;-144.33;100.00
19843;BME280;10082;51.038;6.992;2022-10-16T03:27:46;112171.53;;;-144.33;100.00
19843;BME280;10082;51.038;6.992;2022-10-16T03:30:13;112171.53;;;-144.33;100.00
19843;BME280;10082;51.038;6.992;2022-10-16T03:32:40;112171.53;;;-144.33;100.00
19843;BME280;10082;51.038;6.992;2022-10-16T03:35:08;112171.53;;;-144.33;100.00
19843;BME280;10082;51.038;6.992;2022-10-16T03:37:36;112171.53;;;-144.33;100.00
19843;BME280;10082;51.038;6.992;2022-10-16T03:40:03;112171.53;;;-144.33;100.00
19843;BME280;10082;51.038;6.992;2022-10-16T03:42:30;112171.53;;;-144.33;100.00
19843;BME280;10082;51.038;6.992;2022-10-16T03:44:57;112171.53;;;-144.33;100.00
19843;BME280;10082;51.038;6.992;2022-10-16T03:47:24;112171.53;;;-144.33;100.00
19843;BME280;10082;51.038;6.992;2022-10-16T03:49:51;112171.53;;;-144.33;100.00
19843;BME280;10082;51.038;6.992;2022-10-16T03:52:18;112171.53;;;-144.33;100.00
19843;BME280;10082;51.038;6.992;2022-10-16T03:54:46;112171.53;;;-144.33;100.00
19843;BME280;10082;51.038;6.992;2022-10-16T03:57:13;112171.53;;;-144.33;100.00
19843;BME280;10082;51.038;6.992;2022-10-16T03:59:40;112171.53;;;-144.33;100.00
19843;BME280;10082;51.038;6.992;2022-10-16T04:02:06;112171.53;;;-144.33;100.00
19843;BME280;10082;51.038;6.992;2022-10-16T04:04:33;112171.53;;;-144.33;100.00
19843;BME280;10082;51.038;6.992;2022-10-16T04:07:00;112171.53;;;-144.33;100.00
19843;BME280;10082;51.038;6.992;2022-10-16T04:09:27;112171.53;;;-144.33;100.00
19843;BME280;10082;51.038;6.992;2022-10-16T04:11:56;112171.53;;;-144.33;100.00
19843;BME280;10082;51.038;6.992;2022-10-16T04:14:22;112171.53;;;-144.33;100.00
19843;BME280;10082;51.038;6.992;2022-10-16T04:16:49;112171.53;;;-144.33;100.00
19843;BME280;10082;51.038;6.992;2022-10-16T04:19:16;112171.53;;;-144.33;100.00
19843;BME280;10082;51.038;6.992;2022-10-16T04:21:44;112171.53;;;-144.33;100.00
19843;BME280;10082;51.038;6.992;2022-10-16T04:24:11;112171.53;;;-144.33;100.00
19843;BME280;10082;51.038;6.992;2022-10-16T04:26:38;112171.53;;;-144.33;100.00
19843;BME280;10082;51.038;6.992;2022-10-16T04:29:06;112171.53;;;-144.33;100.00
19843;BME280;10082;51.038;6.992;2022-10-16T04:31:33;112171.53;;;-144.33;100.00
19843;BME280;10082;51.038;6.992;2022-10-16T04:34:00;112171.53;;;-144.33;100.00
19843;BME280;10082;51.038;6.992;2022-10-16T04:36:27;112171.53;;;-144.33;100.00
19843;BME280;10082;51.038;6.992;2022-10-16T04:38:54;112171.53;;;-144.33;100.00
19843;BME280;10082;51.038;6.992;2022-10-16T04:41:21;112171.53;;;-144.33;100.00
19843;BME280;10082;51.038;6.992;2022-10-16T04:43:48;112171.53;;;-144.33;100.00
19843;BME280;10082;51.038;6.992;2022-10-16T04:46:16;112171.53;;;-144.33;100.00
19843;BME280;10082;51.038;6.992;2022-10-16T04:48:43;112171.53;;;-144.33;100.00
19843;BME280;10082;51.038;6.992;2022-10-16T04:51:10;112171.53;;;-144.33;100.00
19843;BME280;10082;51.038;6.992;2022-10-16T04:53:37;112171.53;;;-144.33;100.00
19843;BME280;10082;51.038;6.992;2022-10-16T04:56:04;112171.53;;;-144.33;100.00
19843;BME280;10082;51.038;6.992;2022-10-16T04:58:31;112171.53;;;-144.33;100.00
19843;BME280;10082;51.038;6.992;2022-10-16T05:00:58;112171.53;;;-144.33;100.00
19843;BME280;10082;51.038;6.992;2022-10-16T05:03:26;112171.53;;;-144.33;100.00
19843;BME280;10082;51.038;6.992;2022-10-16T05:05:53;112171.53;;;-144.33;100.00
19843;BME280;10082;51.038;6.992;2022-10-16T05:08:20;112171.53;;;-144.33;100.00
19843;BME280;10082;51.038;6.992;2022-10-16T05:10:47;112171.53;;;-144.33;100.00
19843;BME280;10082;51.038;6.992;2022-10-16T05:13:14;112171.53;;;-144.33;100.00
19843;BME280;10082;51.038;6.992;2022-10-16T05:15:41;112171.53;;;-144.33;100.00
19843;BME280;10082;51.038;6.992;2022-10-16T05:18:08;112171.53;;;-144.33;100.00
19843;BME280;10082;51.038;6.992;2022-10-16T05:20:37;112171.53;;;-144.33;100.00
19843;BME280;10082;51.038;6.992;2022-10-16T05:23:04;112171.53;;;-144.33;100.00
19843;BME280;10082;51.038;6.992;2022-10-16T05:25:31;112171.53;;;-144.33;100.00
19843;BME280;10082;51.038;6.992;2022-10-16T05:27:58;112171.53;;;-144.33;100.00
19843;BME280;10082;51.038;6.992;2022-10-16T05:30:25;112171.53;;;-144.33;100.00
19843;BME280;10082;51.038;6.992;2022-10-16T05:32:52;112171.53;;;-144.33;100.00
19843;BME280;10082;51.038;6.992;2022-10-16T05:35:19;112171.53;;;-144.33;100.00
19843;BME280;10082;51.038;6.992;2022-10-16T05:37:48;112171.53;;;-144.33;100.00
19843;BME280;10082;51.038;6.992;2022-10-16T05:40:15;112171.53;;;-144.33;100.00
19843;BME280;10082;51.038;6.992;2022-10-16T05:42:42;112171.53;;;-144.33;100.00
19843;BME280;10082;51.038;6.992;2022-10-16T05:45:10;112171.53;;;-144.33;100.00
19843;BME280;10082;51.038;6.992;2022-10-16T05:47:38;112171.53;;;-144.33;100.00
19843;BME280;10082;51.038;6.992;2022-10-16T05:50:05;112171.53;;;-144.33;100.00
19843;BME280;10082;51.038;6.992;2022-10-16T05:52:32;112171.53;;;-144.33;100.00
19843;BME280;10082;51.038;6.992;2022-10-16T05:55:01;112171.53;;;-144.33;100.00
19843;BME280;10082;51.038;6.992;2022-10-16T05:57:28;112171.53;;;-144.33;100.00
19843;BME280;10082;51.038;6.992;2022-10-16T05:59:55;112171.53;;;-144.33;100.00
19843;BME280;10082;51.038;6.992;2022-10-16T06:02:22;112171.53;;;-144.33;100.00
19843;BME280;10082;51.038;6.992;2022-10-16T06:04:49;112171.53;;;-144.33;100.00
19843;BME280;10082;51.038;6.992;2022-10-16T06:07:18;112171.53;;;-144.33;100.00
19843;BME280;10082;51.038;6.992;2022-10-16T06:09:48;112171.53;;;-144.33;100.00
19843;BME280;10082;51.038;6.992;2022-10-16T06:12:17;112171.53;;;-144.33;100.00
19843;BME280;10082;51.038;6.992;2022-10-16T06:14:44;112171.53;;;-144.33;100.00
19843;BME280;10082;51.038;6.992;2022-10-16T06:17:12;112171.53;;;-144.33;100.00
19843;BME280;10082;51.038;6.992;2022-10-16T06:19:39;112171.53;;;-144.33;100.00
19843;BME280;10082;51.038;6.992;2022-10-16T06:22:06;112171.53;;;-144.33;100.00
19843;BME280;10082;51.038;6.992;2022-10-16T06:24:33;112171.53;;;-144.33;100.00
19843;BME280;10082;51.038;6.992;2022-10-16T06:27:00;112171.53;;;-144.33;100.00
19843;BME280;10082;51.038;6.992;2022-10-16T06:29:28;112171.53;;;-144.33;100.00
19843;BME280;10082;51.038;6.992;2022-10-16T06:31:55;112171.53;;;-144.33;100.00
19843;BME280;10082;51.038;6.992;2022-10-16T06:34:22;112171.53;;;-144.33;100.00
19843;BME280;10082;51.038;6.992;2022-10-16T06:36:49;112171.53;;;-144.33;100.00
19843;BME280;10082;51.038;6.992;2022-10-16T06:39:16;112171.53;;;-144.33;100.00
19843;BME280;10082;51.038;6.992;2022-10-16T06:41:43;112171.53;;;-144.33;100.00
19843;BME280;10082;51.038;6.992;2022-10-16T06:44:14;112171.53;;;-144.33;100.00
19843;BME280;10082;51.038;6.992;2022-10-16T06:46:43;112171.53;;;-144.33;100.00
19843;BME280;10082;51.038;6.992;2022-10-16T06:49:09;112171.53;;;-144.33;100.00
19843;BME280;10082;51.038;6.992;2022-10-16T06:51:36;112171.53;;;-144.33;100.00
19843;BME280;10082;51.038;6.992;2022-10-16T06:54:06;112171.53;;;-144.33;100.00
19843;BME280;10082;51.038;6.992;2022-10-16T06:56:33;112171.53;;;-144.33;100.00
19843;BME280;10082;51.038;6.992;2022-10-16T06:59:01;112171.53;;;-144.33;100.00
19843;BME280;10082;51.038;6.992;2022-10-16T07:01:28;112171.53;;;-144.33;100.00
19843;BME280;10082;51.038;6.992;2022-10-16T07:03:57;112171.53;;;-144.33;100.00
19843;BME280;10082;51.038;6.992;2022-10-16T07:06:26;112171.53;;;-144.33;100.00
19843;BME280;10082;51.038;6.992;2022-10-16T07:08:53;112171.53;;;-144.33;100.00
19843;BME280;10082;51.038;6.992;2022-10-16T07:11:21;112171.53;;;-144.33;100.00
19843;BME280;10082;51.038;6.992;2022-10-16T07:13:49;112171.53;;;-144.33;100.00
19843;BME280;10082;51.038;6.992;2022-10-16T07:16:19;112171.53;;;-144.33;100.00
19843;BME280;10082;51.038;6.992;2022-10-16T07:18:46;112171.53;;;-144.33;100.00
19843;BME280;10082;51.038;6.992;2022-10-16T07:21:17;112171.53;;;-144.33;100.00
19843;BME280;10082;51.038;6.992;2022-10-16T07:23:44;112171.53;;;-144.33;100.00
19843;BME280;10082;51.038;6.992;2022-10-16T07:26:11;112171.53;;;-144.33;100.00
19843;BME280;10082;51.038;6.992;2022-10-16T07:28:38;112171.53;;;-144.33;100.00
19843;BME280;10082;51.038;6.992;2022-10-16T07:31:08;112171.53;;;-144.33;100.00
19843;BME280;10082;51.038;6.992;2022-10-16T07:33:37;112171.53;;;-144.33;100.00
19843;BME280;10082;51.038;6.992;2022-10-16T07:36:05;112171.53;;;-144.33;100.00
19843;BME280;10082;51.038;6.992;2022-10-16T07:38:33;112171.53;;;-144.33;100.00
19843;BME280;10082;51.038;6.992;2022-10-16T07:41:02;112171.53;;;-144.33;100.00
19843;BME280;10082;51.038;6.992;2022-10-16T07:43:30;112171.53;;;-144.33;100.00
19843;BME280;10082;51.038;6.992;2022-10-16T07:45:57;112171.53;;;-144.33;100.00
19843;BME280;10082;51.038;6.992;2022-10-16T07:48:27;112171.53;;;-144.33;100.00
19843;BME280;10082;51.038;6.992;2022-10-16T07:50:57;112171.53;;;-144.33;100.00
19843;BME280;10082;51.038;6.992;2022-10-16T07:53:24;112171.53;;;-144.33;100.00
19843;BME280;10082;51.038;6.992;2022-10-16T07:55:57;112171.53;;;-144.33;100.00
19843;BME280;10082;51.038;6.992;2022-10-16T07:58:24;112171.53;;;-144.33;100.00
19843;BME280;10082;51.038;6.992;2022-10-16T08:00:51;112171.53;;;-144.33;100.00
19843;BME280;10082;51.038;6.992;2022-10-16T08:03:18;112171.53;;;-144.33;100.00
19843;BME280;10082;51.038;6.992;2022-10-16T08:05:44;112171.53;;;-144.33;100.00
19843;BME280;10082;51.038;6.992;2022-10-16T08:08:13;112171.53;;;-144.33;100.00
19843;BME280;10082;51.038;6.992;2022-10-16T08:10:41;112171.53;;;-144.33;100.00
19843;BME280;10082;51.038;6.992;2022-10-16T08:13:09;112171.53;;;-144.33;100.00
19843;BME280;10082;51.038;6.992;2022-10-16T08:15:36;112171.53;;;-144.33;100.00
19843;BME280;10082;51.038;6.992;2022-10-16T08:18:04;112171.53;;;-144.33;100.00
19843;BME280;10082;51.038;6.992;2022-10-16T08:20:32;112171.53;;;-144.33;100.00
19843;BME280;10082;51.038;6.992;2022-10-16T08:22:59;112171.53;;;-144.33;100.00
19843;BME280;10082;51.038;6.992;2022-10-16T08:25:27;112171.53;;;-144.33;100.00
19843;BME280;10082;51.038;6.992;2022-10-16T08:27:54;112171.53;;;-144.33;100.00
19843;BME280;10082;51.038;6.992;2022-10-16T08:30:23;112171.53;;;-144.33;100.00
19843;BME280;10082;51.038;6.992;2022-10-16T08:32:50;112171.53;;;-144.33;100.00
19843;BME280;10082;51.038;6.992;2022-10-16T08:35:17;112171.53;;;-144.33;100.00
19843;BME280;10082;51.038;6.992;2022-10-16T08:37:44;112171.53;;;-144.33;100.00
19843;BME280;10082;51.038;6.992;2022-10-16T08:40:17;112171.53;;;-144.33;100.00
19843;BME280;10082;51.038;6.992;2022-10-16T08:42:57;112171.53;;;-144.33;95.48
19843;BME280;10082;51.038;6.992;2022-10-16T08:45:37;112171.53;;;-144.33;93.51
19843;BME280;10082;51.038;6.992;2022-10-16T08:48:17;112171.53;;;-144.33;94.38
19843;BME280;10082;51.038;6.992;2022-10-16T08:50:47;112171.53;;;-144.33;91.53
19843;BME280;10082;51.038;6.992;2022-10-16T08:53:16;112171.53;;;-144.33;83.46
19843;BME280;10082;51.038;6.992;2022-10-16T08:55:46;112171.53;;;-144.33;84.03
19843;BME280;10082;51.038;6.992;2022-10-16T08:58:17;112171.53;;;-144.33;86.47
19843;BME280;10082;51.038;6.992;2022-10-16T09:00:47;112171.53;;;-144.33;88.87
19843;BME280;10082;51.038;6.992;2022-10-16T09:03:36;112171.53;;;-144.33;87.14
19843;BME280;10082;51.038;6.992;2022-10-16T09:06:22;112171.53;;;-144.33;87.95
19843;BME280;10082;51.038;6.992;2022-10-16T09:09:25;112171.53;;;-144.33;81.28
19843;BME280;10082;51.038;6.992;2022-10-16T09:12:00;112171.53;;;-144.33;79.21
19843;BME280;10082;51.038;6.992;2022-10-16T09:14:38;112171.53;;;-144.33;76.98
19843;BME280;10082;51.038;6.992;2022-10-16T09:17:18;112171.53;;;-144.33;74.50
19843;BME280;10082;51.038;6.992;2022-10-16T09:19:52;112171.53;;;-144.33;69.91
19843;BME280;10082;51.038;6.992;2022-10-16T09:22:24;112171.53;;;-144.33;73.35
19843;BME280;10082;51.038;6.992;2022-10-16T09:24:54;112171.53;;;-144.33;73.43
19843;BME280;10082;51.038;6.992;2022-10-16T09:27:21;112171.53;;;-144.33;67.96
19843;BME280;10082;51.038;6.992;2022-10-16T09:29:49;112171.53;;;-144.33;63.79
19843;BME280;10082;51.038;6.992;2022-10-16T09:32:19;112171.53;;;-144.33;67.50
19843;BME280;10082;51.038;6.992;2022-10-16T09:34:49;112171.53;;;-144.33;73.12
19843;BME280;10082;51.038;6.992;2022-10-16T09:37:18;112171.53;;;-144.33;75.74
19843;BME280;10082;51.038;6.992;2022-10-16T09:39:48;112171.53;;;-144.33;74.87
19843;BME280;10082;51.038;6.992;2022-10-16T09:42:17;112171.53;;;-144.33;73.13
19843;BME280;10082;51.038;6.992;2022-10-16T09:44:48;112171.53;;;-144.33;68.98
19843;BME280;10082;51.038;6.992;2022-10-16T09:47:21;112171.53;;;-144.33;69.10
19843;BME280;10082;51.038;6.992;2022-10-16T09:49:54;112171.53;;;-144.33;65.87
19843;BME280;10082;51.038;6.992;2022-10-16T09:52:22;112171.53;;;-144.33;67.21
19843;BME280;10082;51.038;6.992;2022-10-16T09:54:51;112171.53;;;-144.33;63.41
19843;BME280;10082;51.038;6.992;2022-10-16T09:57:19;112171.53;;;-144.33;64.77
19843;BME280;10082;51.038;6.992;2022-10-16T09:59:47;112171.53;;;-144.33;63.32
19843;BME280;10082;51.038;6.992;2022-10-16T10:02:15;112171.53;;;-144.33;64.06
19843;BME280;10082;51.038;6.992;2022-10-16T10:04:50;112171.53;;;-144.33;61.51
19843;BME280;10082;51.038;6.992;2022-10-16T10:07:23;112171.53;;;-144.33;64.95
19843;BME280;10082;51.038;6.992;2022-10-16T10:09:52;112171.53;;;-144.33;64.12
19843;BME280;10082;51.038;6.992;2022-10-16T10:12:21;112171.53;;;-144.33;66.61
19843;BME280;10082;51.038;6.992;2022-10-16T10:14:49;112171.53;;;-144.33;68.70
19843;BME280;10082;51.038;6.992;2022-10-16T10:17:19;112171.53;;;-144.33;64.62
19843;BME280;10082;51.038;6.992;2022-10-16T10:19:50;112171.53;;;-144.33;64.35
19843;BME280;10082;51.038;6.992;2022-10-16T10:22:22;112171.53;;;-144.33;66.33
19843;BME280;10082;51.038;6.992;2022-10-16T10:24:57;112171.53;;;-144.33;63.00
19843;BME280;10082;51.038;6.992;2022-10-16T10:27:32;112171.53;;;-144.33;61.97
19843;BME280;10082;51.038;6.992;2022-10-16T10:30:08;112171.53;;;-144.33;66.97
19843;BME280;10082;51.038;6.992;2022-10-16T10:32:49;112171.53;;;-144.33;68.91
19843;BME280;10082;51.038;6.992;2022-10-16T10:35:28;112171.53;;;-144.33;71.45
19843;BME280;10082;51.038;6.992;2022-10-16T10:38:09;112171.53;;;-144.33;73.10
19843;BME280;10082;51.038;6.992;2022-10-16T10:40:49;112171.53;;;-144.33;73.91
19843;BME280;10082;51.038;6.992;2022-10-16T10:43:38;112171.53;;;-144.33;73.10
19843;BME280;10082;51.038;6.992;2022-10-16T10:46:10;112171.53;;;-144.33;75.91
19843;BME280;10082;51.038;6.992;2022-10-16T10:48:54;112171.53;;;-144.33;74.29
19843;BME280;10082;51.038;6.992;2022-10-16T10:51:30;112171.53;;;-144.33;73.32
19843;BME280;10082;51.038;6.992;2022-10-16T10:54:09;112171.53;;;-144.33;73.87
19843;BME280;10082;51.038;6.992;2022-10-16T10:56:47;112171.53;;;-144.33;76.69
19843;BME280;10082;51.038;6.992;2022-10-16T11:02:26;112171.53;;;-144.33;76.03
19843;BME280;10082;51.038;6.992;2022-10-16T11:05:16;112171.53;;;-144.33;74.67
19843;BME280;10082;51.038;6.992;2022-10-16T11:07:51;112171.53;;;-144.33;73.41
19843;BME280;10082;51.038;6.992;2022-10-16T11:10:22;112171.53;;;-144.33;73.91
19843;BME280;10082;51.038;6.992;2022-10-16T11:12:54;112171.53;;;-144.33;74.13
19843;BME280;10082;51.038;6.992;2022-10-16T11:15:25;112171.53;;;-144.33;74.25
19843;BME280;10082;51.038;6.992;2022-10-16T11:17:59;112171.53;;;-144.33;72.37
19843;BME280;10082;51.038;6.992;2022-10-16T11:20:29;112171.53;;;-144.33;74.07
19843;BME280;10082;51.038;6.992;2022-10-16T11:23:02;112171.53;;;-144.33;73.02
19843;BME280;10082;51.038;6.992;2022-10-16T11:25:33;112171.53;;;-144.33;72.40
19843;BME280;10082;51.038;6.992;2022-10-16T11:28:03;112171.53;;;-144.33;73.15
19843;BME280;10082;51.038;6.992;2022-10-16T11:30:39;112171.53;;;-144.33;73.70
19843;BME280;10082;51.038;6.992;2022-10-16T11:33:22;112171.53;;;-144.33;71.42
19843;BME280;10082;51.038;6.992;2022-10-16T11:35:55;112171.53;;;-144.33;70.72
19843;BME280;10082;51.038;6.992;2022-10-16T11:38:29;112171.53;;;-144.33;71.14
19843;BME280;10082;51.038;6.992;2022-10-16T11:41:00;112171.53;;;-144.33;73.12
19843;BME280;10082;51.038;6.992;2022-10-16T11:43:34;112171.53;;;-144.33;71.81
19843;BME280;10082;51.038;6.992;2022-10-16T11:46:08;112171.53;;;-144.33;71.69
19843;BME280;10082;51.038;6.992;2022-10-16T11:48:41;112171.53;;;-144.33;71.31
19843;BME280;10082;51.038;6.992;2022-10-16T11:51:14;112171.53;;;-144.33;70.29
19843;BME280;10082;51.038;6.992;2022-10-16T11:53:47;112171.53;;;-144.33;68.87
19843;BME280;10082;51.038;6.992;2022-10-16T11:56:20;112171.53;;;-144.33;67.56
19843;BME280;10082;51.038;6.992;2022-10-16T11:58:54;112171.53;;;-144.33;66.97
19843;BME280;10082;51.038;6.992;2022-10-16T12:01:29;112171.53;;;-144.33;68.71
19843;BME280;10082;51.038;6.992;2022-10-16T12:04:16;112171.53;;;-144.33;68.69
19843;BME280;10082;51.038;6.992;2022-10-16T12:06:50;112171.53;;;-144.33;68.45
19843;BME280;10082;51.038;6.992;2022-10-16T12:09:25;112171.53;;;-144.33;66.30
19843;BME280;10082;51.038;6.992;2022-10-16T12:11:52;112171.53;;;-144.33;66.26
19843;BME280;10082;51.038;6.992;2022-10-16T12:14:32;112171.53;;;-144.33;66.26
19843;BME280;10082;51.038;6.992;2022-10-16T12:17:02;112171.53;;;-144.33;65.77
19843;BME280;10082;51.038;6.992;2022-10-16T12:19:31;112171.53;;;-144.33;65.33
19843;BME280;10082;51.038;6.992;2022-10-16T12:22:00;112171.53;;;-144.33;64.00
19843;BME280;10082;51.038;6.992;2022-10-16T12:24:35;112171.53;;;-144.33;62.75
19843;BME280;10082;51.038;6.992;2022-10-16T12:27:05;112171.53;;;-144.33;62.94
19843;BME280;10082;51.038;6.992;2022-10-16T12:29:36;112171.53;;;-144.33;61.98
19843;BME280;10082;51.038;6.992;2022-10-16T12:32:05;112171.53;;;-144.33;62.27
19843;BME280;10082;51.038;6.992;2022-10-16T12:34:45;112171.53;;;-144.33;61.83
19843;BME280;10082;51.038;6.992;2022-10-16T12:37:18;112171.53;;;-144.33;60.97
19843;BME280;10082;51.038;6.992;2022-10-16T12:39:49;112171.53;;;-144.33;60.06